sensor_id;sensor_type;location;lat;lon;timestamp;temperature;humidity
64652;HTU21D;51062;45.120;37.660;2022-08-19T00:02:14;22.61;73.75
64652;HTU21D;51062;45.120;37.660;2022-08-19T00:04:40;22.61;73.77
64652;HTU21D;51062;45.120;37.660;2022-08-19T00:07:07;22.57;73.83
64652;HTU21D;51062;45.120;37.660;2022-08-19T00:09:34;22.54;73.97
64652;HTU21D;51062;45.120;37.660;2022-08-19T00:12:00;22.52;74.05
64652;HTU21D;51062;45.120;37.660;2022-08-19T00:14:28;22.52;74.11
64652;HTU21D;51062;45.120;37.660;2022-08-19T00:16:57;22.52;74.13
64652;HTU21D;51062;45.120;37.660;2022-08-19T00:19:23;22.50;74.16
64652;HTU21D;51062;45.120;37.660;2022-08-19T00:21:50;22.48;74.18
64652;HTU21D;51062;45.120;37.660;2022-08-19T00:24:16;22.47;74.19
64652;HTU21D;51062;45.120;37.660;2022-08-19T00:26:44;22.47;74.20
64652;HTU21D;51062;45.120;37.660;2022-08-19T00:29:13;22.46;74.19
64652;HTU21D;51062;45.120;37.660;2022-08-19T00:31:40;22.43;74.18
64652;HTU21D;51062;45.120;37.660;2022-08-19T00:34:07;22.41;74.23
64652;HTU21D;51062;45.120;37.660;2022-08-19T00:36:33;22.39;74.28
64652;HTU21D;51062;45.120;37.660;2022-08-19T00:39:00;22.39;74.28
64652;HTU21D;51062;45.120;37.660;2022-08-19T00:41:27;22.38;74.26
64652;HTU21D;51062;45.120;37.660;2022-08-19T00:44:03;22.34;74.35
64652;HTU21D;51062;45.120;37.660;2022-08-19T00:46:30;22.32;74.32
64652;HTU21D;51062;45.120;37.660;2022-08-19T00:48:59;22.32;74.34
64652;HTU21D;51062;45.120;37.660;2022-08-19T00:51:27;22.28;74.37
64652;HTU21D;51062;45.120;37.660;2022-08-19T00:53:57;22.26;74.40
64652;HTU21D;51062;45.120;37.660;2022-08-19T00:56:24;22.25;74.47
64652;HTU21D;51062;45.120;37.660;2022-08-19T00:58:54;22.25;74.47
64652;HTU21D;51062;45.120;37.660;2022-08-19T01:01:22;22.24;74.44
64652;HTU21D;51062;45.120;37.660;2022-08-19T01:03:48;22.21;74.47
64652;HTU21D;51062;45.120;37.660;2022-08-19T01:06:14;22.21;74.56
64652;HTU21D;51062;45.120;37.660;2022-08-19T01:08:40;22.20;74.54
64652;HTU21D;51062;45.120;37.660;2022-08-19T01:11:07;22.19;74.57
64652;HTU21D;51062;45.120;37.660;2022-08-19T01:13:36;22.17;74.62
64652;HTU21D;51062;45.120;37.660;2022-08-19T01:16:06;22.14;74.73
64652;HTU21D;51062;45.120;37.660;2022-08-19T01:18:36;22.12;74.89
64652;HTU21D;51062;45.120;37.660;2022-08-19T01:21:12;22.11;74.96
64652;HTU21D;51062;45.120;37.660;2022-08-19T01:23:43;22.11;74.89
64652;HTU21D;51062;45.120;37.660;2022-08-19T01:26:14;22.09;74.98
64652;HTU21D;51062;45.120;37.660;2022-08-19T01:28:42;22.09;75.02
64652;HTU21D;51062;45.120;37.660;2022-08-19T01:31:15;22.08;75.08
64652;HTU21D;51062;45.120;37.660;2022-08-19T01:33:41;22.08;75.05
64652;HTU21D;51062;45.120;37.660;2022-08-19T01:36:11;22.10;75.09
64652;HTU21D;51062;45.120;37.660;2022-08-19T01:38:41;22.10;75.03
64652;HTU21D;51062;45.120;37.660;2022-08-19T01:41:10;22.07;75.04
64652;HTU21D;51062;45.120;37.660;2022-08-19T01:43:36;22.08;75.00
64652;HTU21D;51062;45.120;37.660;2022-08-19T01:46:04;22.06;75.06
64652;HTU21D;51062;45.120;37.660;2022-08-19T01:48:35;22.02;75.20
64652;HTU21D;51062;45.120;37.660;2022-08-19T01:51:02;21.99;75.22
64652;HTU21D;51062;45.120;37.660;2022-08-19T01:53:28;21.98;75.29
64652;HTU21D;51062;45.120;37.660;2022-08-19T01:55:55;21.97;75.31
64652;HTU21D;51062;45.120;37.660;2022-08-19T01:58:35;21.99;75.33
64652;HTU21D;51062;45.120;37.660;2022-08-19T02:01:04;21.97;75.31
64652;HTU21D;51062;45.120;37.660;2022-08-19T02:03:30;21.98;75.27
64652;HTU21D;51062;45.120;37.660;2022-08-19T02:05:59;21.95;75.25
64652;HTU21D;51062;45.120;37.660;2022-08-19T02:08:30;21.92;75.33
64652;HTU21D;51062;45.120;37.660;2022-08-19T02:10:57;21.91;75.28
64652;HTU21D;51062;45.120;37.660;2022-08-19T02:13:24;21.87;75.39
64652;HTU21D;51062;45.120;37.660;2022-08-19T02:15:50;21.89;75.38
64652;HTU21D;51062;45.120;37.660;2022-08-19T02:18:17;21.88;75.30
64652;HTU21D;51062;45.120;37.660;2022-08-19T02:20:44;21.88;75.25
64652;HTU21D;51062;45.120;37.660;2022-08-19T02:23:11;21.85;75.32
64652;HTU21D;51062;45.120;37.660;2022-08-19T02:25:38;21.81;75.36
64652;HTU21D;51062;45.120;37.660;2022-08-19T02:28:04;21.79;75.43
64652;HTU21D;51062;45.120;37.660;2022-08-19T02:30:31;21.78;75.50
64652;HTU21D;51062;45.120;37.660;2022-08-19T02:32:57;21.79;75.56
64652;HTU21D;51062;45.120;37.660;2022-08-19T02:35:24;21.79;75.66
64652;HTU21D;51062;45.120;37.660;2022-08-19T02:37:50;21.80;75.69
64652;HTU21D;51062;45.120;37.660;2022-08-19T02:40:35;21.82;75.67
64652;HTU21D;51062;45.120;37.660;2022-08-19T02:43:06;21.83;75.77
64652;HTU21D;51062;45.120;37.660;2022-08-19T02:45:35;21.87;75.79
64652;HTU21D;51062;45.120;37.660;2022-08-19T02:48:01;21.92;75.76
64652;HTU21D;51062;45.120;37.660;2022-08-19T02:50:28;21.96;75.70
64652;HTU21D;51062;45.120;37.660;2022-08-19T02:52:54;21.96;75.75
64652;HTU21D;51062;45.120;37.660;2022-08-19T02:55:20;21.98;75.86
64652;HTU21D;51062;45.120;37.660;2022-08-19T02:57:47;21.99;75.98
64652;HTU21D;51062;45.120;37.660;2022-08-19T03:00:13;22.04;76.05
64652;HTU21D;51062;45.120;37.660;2022-08-19T03:02:40;22.11;76.05
64652;HTU21D;51062;45.120;37.660;2022-08-19T03:05:08;22.17;75.97
64652;HTU21D;51062;45.120;37.660;2022-08-19T03:07:36;22.23;75.94
64652;HTU21D;51062;45.120;37.660;2022-08-19T03:10:04;22.31;75.96
64652;HTU21D;51062;45.120;37.660;2022-08-19T03:12:30;22.44;76.04
64652;HTU21D;51062;45.120;37.660;2022-08-19T03:14:56;22.77;75.98
64652;HTU21D;51062;45.120;37.660;2022-08-19T03:17:22;23.12;75.73
64652;HTU21D;51062;45.120;37.660;2022-08-19T03:19:49;23.47;75.38
64652;HTU21D;51062;45.120;37.660;2022-08-19T03:22:15;23.69;75.19
64652;HTU21D;51062;45.120;37.660;2022-08-19T03:24:41;23.81;74.96
64652;HTU21D;51062;45.120;37.660;2022-08-19T03:27:07;23.88;74.65
64652;HTU21D;51062;45.120;37.660;2022-08-19T03:29:37;24.05;74.12
64652;HTU21D;51062;45.120;37.660;2022-08-19T03:32:04;24.42;73.31
64652;HTU21D;51062;45.120;37.660;2022-08-19T03:34:32;24.86;72.58
64652;HTU21D;51062;45.120;37.660;2022-08-19T03:37:05;25.28;72.09
64652;HTU21D;51062;45.120;37.660;2022-08-19T03:39:31;25.66;71.76
64652;HTU21D;51062;45.120;37.660;2022-08-19T03:41:57;26.03;71.33
64652;HTU21D;51062;45.120;37.660;2022-08-19T03:44:25;26.41;70.75
64652;HTU21D;51062;45.120;37.660;2022-08-19T03:46:56;26.80;70.06
64652;HTU21D;51062;45.120;37.660;2022-08-19T03:49:27;27.22;69.46
64652;HTU21D;51062;45.120;37.660;2022-08-19T03:51:54;27.63;68.79
64652;HTU21D;51062;45.120;37.660;2022-08-19T03:54:22;28.06;67.84
64652;HTU21D;51062;45.120;37.660;2022-08-19T03:56:50;28.50;66.88
64652;HTU21D;51062;45.120;37.660;2022-08-19T03:59:33;28.91;65.88
64652;HTU21D;51062;45.120;37.660;2022-08-19T04:02:02;29.36;64.84
64652;HTU21D;51062;45.120;37.660;2022-08-19T04:04:35;29.75;63.69
64652;HTU21D;51062;45.120;37.660;2022-08-19T04:07:02;30.03;62.70
64652;HTU21D;51062;45.120;37.660;2022-08-19T04:09:28;30.31;61.89
64652;HTU21D;51062;45.120;37.660;2022-08-19T04:11:56;30.62;61.00
64652;HTU21D;51062;45.120;37.660;2022-08-19T04:14:25;30.90;60.05
64652;HTU21D;51062;45.120;37.660;2022-08-19T04:16:52;31.15;59.12
64652;HTU21D;51062;45.120;37.660;2022-08-19T04:19:19;31.43;58.52
64652;HTU21D;51062;45.120;37.660;2022-08-19T04:21:48;31.72;57.61
64652;HTU21D;51062;45.120;37.660;2022-08-19T04:24:16;32.03;57.23
64652;HTU21D;51062;45.120;37.660;2022-08-19T04:26:43;32.34;56.07
64652;HTU21D;51062;45.120;37.660;2022-08-19T04:29:16;32.64;55.19
64652;HTU21D;51062;45.120;37.660;2022-08-19T04:31:43;32.93;54.40
64652;HTU21D;51062;45.120;37.660;2022-08-19T04:34:12;33.20;53.54
64652;HTU21D;51062;45.120;37.660;2022-08-19T04:36:40;33.51;52.94
64652;HTU21D;51062;45.120;37.660;2022-08-19T04:39:10;33.79;52.37
64652;HTU21D;51062;45.120;37.660;2022-08-19T04:41:36;34.04;51.89
64652;HTU21D;51062;45.120;37.660;2022-08-19T04:44:22;34.25;51.28
64652;HTU21D;51062;45.120;37.660;2022-08-19T04:46:49;34.49;50.43
64652;HTU21D;51062;45.120;37.660;2022-08-19T04:49:17;34.70;50.02
64652;HTU21D;51062;45.120;37.660;2022-08-19T04:51:45;34.88;49.34
64652;HTU21D;51062;45.120;37.660;2022-08-19T04:54:13;35.04;48.93
64652;HTU21D;51062;45.120;37.660;2022-08-19T04:56:40;35.10;48.52
64652;HTU21D;51062;45.120;37.660;2022-08-19T04:59:07;35.11;48.59
64652;HTU21D;51062;45.120;37.660;2022-08-19T05:01:34;35.14;48.24
64652;HTU21D;51062;45.120;37.660;2022-08-19T05:04:04;35.28;48.11
64652;HTU21D;51062;45.120;37.660;2022-08-19T05:06:32;35.45;47.69
64652;HTU21D;51062;45.120;37.660;2022-08-19T05:09:03;35.66;47.23
64652;HTU21D;51062;45.120;37.660;2022-08-19T05:11:35;35.88;46.59
64652;HTU21D;51062;45.120;37.660;2022-08-19T05:14:05;35.96;46.75
64652;HTU21D;51062;45.120;37.660;2022-08-19T05:16:31;36.03;46.60
64652;HTU21D;51062;45.120;37.660;2022-08-19T05:18:57;36.21;46.38
64652;HTU21D;51062;45.120;37.660;2022-08-19T05:21:42;36.56;47.09
64652;HTU21D;51062;45.120;37.660;2022-08-19T05:24:27;36.71;45.90
64652;HTU21D;51062;45.120;37.660;2022-08-19T05:26:55;36.72;45.70
64652;HTU21D;51062;45.120;37.660;2022-08-19T05:29:26;36.80;45.34
64652;HTU21D;51062;45.120;37.660;2022-08-19T05:31:54;36.87;44.85
64652;HTU21D;51062;45.120;37.660;2022-08-19T05:34:22;36.92;44.44
64652;HTU21D;51062;45.120;37.660;2022-08-19T05:36:54;36.96;44.42
64652;HTU21D;51062;45.120;37.660;2022-08-19T05:39:27;37.21;44.03
64652;HTU21D;51062;45.120;37.660;2022-08-19T05:41:59;37.37;43.80
64652;HTU21D;51062;45.120;37.660;2022-08-19T05:44:28;37.46;43.29
64652;HTU21D;51062;45.120;37.660;2022-08-19T05:47:02;37.48;43.34
64652;HTU21D;51062;45.120;37.660;2022-08-19T05:49:28;37.60;42.81
64652;HTU21D;51062;45.120;37.660;2022-08-19T05:51:55;37.50;43.00
64652;HTU21D;51062;45.120;37.660;2022-08-19T05:54:22;37.60;42.93
64652;HTU21D;51062;45.120;37.660;2022-08-19T05:56:50;37.79;42.16
64652;HTU21D;51062;45.120;37.660;2022-08-19T05:59:18;37.55;42.35
64652;HTU21D;51062;45.120;37.660;2022-08-19T06:01:49;36.95;43.09
64652;HTU21D;51062;45.120;37.660;2022-08-19T06:04:20;36.62;43.39
64652;HTU21D;51062;45.120;37.660;2022-08-19T06:06:49;36.38;43.87
64652;HTU21D;51062;45.120;37.660;2022-08-19T06:09:18;36.40;43.67
64652;HTU21D;51062;45.120;37.660;2022-08-19T06:11:53;36.07;43.82
64652;HTU21D;51062;45.120;37.660;2022-08-19T06:14:24;35.23;44.99
64652;HTU21D;51062;45.120;37.660;2022-08-19T06:16:50;34.89;45.80
64652;HTU21D;51062;45.120;37.660;2022-08-19T06:19:20;35.19;45.82
64652;HTU21D;51062;45.120;37.660;2022-08-19T06:21:48;35.69;45.12
64652;HTU21D;51062;45.120;37.660;2022-08-19T06:24:17;36.26;44.18
64652;HTU21D;51062;45.120;37.660;2022-08-19T06:26:46;36.76;42.77
64652;HTU21D;51062;45.120;37.660;2022-08-19T06:29:14;37.13;42.73
64652;HTU21D;51062;45.120;37.660;2022-08-19T06:31:43;37.57;40.78
64652;HTU21D;51062;45.120;37.660;2022-08-19T06:34:10;37.95;39.59
64652;HTU21D;51062;45.120;37.660;2022-08-19T06:36:39;38.31;38.40
64652;HTU21D;51062;45.120;37.660;2022-08-19T06:39:09;38.39;38.37
64652;HTU21D;51062;45.120;37.660;2022-08-19T06:41:39;38.47;38.59
64652;HTU21D;51062;45.120;37.660;2022-08-19T06:44:08;38.54;38.33
64652;HTU21D;51062;45.120;37.660;2022-08-19T06:46:34;38.71;37.82
64652;HTU21D;51062;45.120;37.660;2022-08-19T06:49:01;38.67;37.41
64652;HTU21D;51062;45.120;37.660;2022-08-19T06:51:27;38.66;37.40
64652;HTU21D;51062;45.120;37.660;2022-08-19T06:53:54;38.70;37.61
64652;HTU21D;51062;45.120;37.660;2022-08-19T06:56:27;38.85;37.36
64652;HTU21D;51062;45.120;37.660;2022-08-19T06:59:08;39.08;37.05
64652;HTU21D;51062;45.120;37.660;2022-08-19T07:01:39;39.28;36.56
64652;HTU21D;51062;45.120;37.660;2022-08-19T07:04:07;39.33;35.81
64652;HTU21D;51062;45.120;37.660;2022-08-19T07:06:35;39.21;35.81
64652;HTU21D;51062;45.120;37.660;2022-08-19T07:09:03;39.22;36.38
64652;HTU21D;51062;45.120;37.660;2022-08-19T07:11:29;39.43;35.84
64652;HTU21D;51062;45.120;37.660;2022-08-19T07:13:56;39.47;35.56
64652;HTU21D;51062;45.120;37.660;2022-08-19T07:16:22;39.21;35.82
64652;HTU21D;51062;45.120;37.660;2022-08-19T07:18:50;38.90;35.63
64652;HTU21D;51062;45.120;37.660;2022-08-19T07:21:21;38.40;35.79
64652;HTU21D;51062;45.120;37.660;2022-08-19T07:23:48;38.16;36.09
64652;HTU21D;51062;45.120;37.660;2022-08-19T07:26:18;37.78;36.20
64652;HTU21D;51062;45.120;37.660;2022-08-19T07:28:46;37.34;37.33
64652;HTU21D;51062;45.120;37.660;2022-08-19T07:31:15;36.95;38.34
64652;HTU21D;51062;45.120;37.660;2022-08-19T07:33:42;36.55;39.49
64652;HTU21D;51062;45.120;37.660;2022-08-19T07:36:11;36.15;40.26
64652;HTU21D;51062;45.120;37.660;2022-08-19T07:38:40;35.75;40.90
64652;HTU21D;51062;45.120;37.660;2022-08-19T07:41:10;35.42;41.25
64652;HTU21D;51062;45.120;37.660;2022-08-19T07:43:38;35.10;41.97
64652;HTU21D;51062;45.120;37.660;2022-08-19T07:46:05;34.93;42.13
64652;HTU21D;51062;45.120;37.660;2022-08-19T07:48:31;34.85;41.76
64652;HTU21D;51062;45.120;37.660;2022-08-19T07:51:01;34.78;41.83
64652;HTU21D;51062;45.120;37.660;2022-08-19T07:53:28;35.18;41.89
64652;HTU21D;51062;45.120;37.660;2022-08-19T07:55:55;35.77;40.59
64652;HTU21D;51062;45.120;37.660;2022-08-19T07:58:25;36.21;40.15
64652;HTU21D;51062;45.120;37.660;2022-08-19T08:00:52;36.63;39.05
64652;HTU21D;51062;45.120;37.660;2022-08-19T08:03:21;36.92;37.93
64652;HTU21D;51062;45.120;37.660;2022-08-19T08:06:08;37.16;37.80
64652;HTU21D;51062;45.120;37.660;2022-08-19T08:08:52;37.06;38.02
64652;HTU21D;51062;45.120;37.660;2022-08-19T08:11:40;37.12;38.46
64652;HTU21D;51062;45.120;37.660;2022-08-19T08:14:08;36.92;38.15
64652;HTU21D;51062;45.120;37.660;2022-08-19T08:16:37;36.55;38.62
64652;HTU21D;51062;45.120;37.660;2022-08-19T08:19:06;36.16;39.04
64652;HTU21D;51062;45.120;37.660;2022-08-19T08:21:33;35.93;39.66
64652;HTU21D;51062;45.120;37.660;2022-08-19T08:23:59;35.72;40.03
64652;HTU21D;51062;45.120;37.660;2022-08-19T08:26:25;35.50;40.87
64652;HTU21D;51062;45.120;37.660;2022-08-19T08:28:52;35.34;41.20
64652;HTU21D;51062;45.120;37.660;2022-08-19T08:31:19;35.24;41.26
64652;HTU21D;51062;45.120;37.660;2022-08-19T08:33:46;35.09;41.29
64652;HTU21D;51062;45.120;37.660;2022-08-19T08:36:13;34.90;41.56
64652;HTU21D;51062;45.120;37.660;2022-08-19T08:38:40;34.77;41.98
64652;HTU21D;51062;45.120;37.660;2022-08-19T08:43:47;34.22;43.03
64652;HTU21D;51062;45.120;37.660;2022-08-19T08:48:57;34.05;43.81
64652;HTU21D;51062;45.120;37.660;2022-08-19T08:51:32;34.02;43.96
64652;HTU21D;51062;45.120;37.660;2022-08-19T08:54:00;34.07;44.43
64652;HTU21D;51062;45.120;37.660;2022-08-19T08:56:27;34.07;44.65
64652;HTU21D;51062;45.120;37.660;2022-08-19T08:59:01;33.89;44.67
64652;HTU21D;51062;45.120;37.660;2022-08-19T09:01:28;33.66;45.16
64652;HTU21D;51062;45.120;37.660;2022-08-19T09:03:54;33.49;45.54
64652;HTU21D;51062;45.120;37.660;2022-08-19T09:09:24;32.83;46.48
64652;HTU21D;51062;45.120;37.660;2022-08-19T09:14:50;32.19;47.38
64652;HTU21D;51062;45.120;37.660;2022-08-19T09:17:21;31.96;47.56
64652;HTU21D;51062;45.120;37.660;2022-08-19T09:20:04;31.70;47.89
64652;HTU21D;51062;45.120;37.660;2022-08-19T09:22:34;31.52;48.18
64652;HTU21D;51062;45.120;37.660;2022-08-19T09:25:01;31.34;48.46
64652;HTU21D;51062;45.120;37.660;2022-08-19T09:27:29;31.22;48.69
64652;HTU21D;51062;45.120;37.660;2022-08-19T09:29:55;31.10;48.86
64652;HTU21D;51062;45.120;37.660;2022-08-19T09:32:22;31.00;48.86
64652;HTU21D;51062;45.120;37.660;2022-08-19T09:34:49;30.87;48.88
64652;HTU21D;51062;45.120;37.660;2022-08-19T09:37:15;30.75;49.00
64652;HTU21D;51062;45.120;37.660;2022-08-19T09:39:41;30.65;49.12
64652;HTU21D;51062;45.120;37.660;2022-08-19T09:42:08;30.55;49.05
64652;HTU21D;51062;45.120;37.660;2022-08-19T09:44:41;30.46;49.17
64652;HTU21D;51062;45.120;37.660;2022-08-19T09:47:10;30.39;49.49
64652;HTU21D;51062;45.120;37.660;2022-08-19T09:49:37;30.31;49.77
64652;HTU21D;51062;45.120;37.660;2022-08-19T09:52:06;30.23;50.08
64652;HTU21D;51062;45.120;37.660;2022-08-19T09:54:34;30.15;50.34
64652;HTU21D;51062;45.120;37.660;2022-08-19T09:57:00;30.06;50.59
64652;HTU21D;51062;45.120;37.660;2022-08-19T09:59:28;29.98;50.83
64652;HTU21D;51062;45.120;37.660;2022-08-19T10:01:54;29.90;50.84
64652;HTU21D;51062;45.120;37.660;2022-08-19T10:04:21;29.83;50.88
64652;HTU21D;51062;45.120;37.660;2022-08-19T10:06:48;29.77;50.98
64652;HTU21D;51062;45.120;37.660;2022-08-19T10:09:17;29.71;51.22
64652;HTU21D;51062;45.120;37.660;2022-08-19T10:11:44;29.66;51.67
64652;HTU21D;51062;45.120;37.660;2022-08-19T10:14:15;29.62;52.01
64652;HTU21D;51062;45.120;37.660;2022-08-19T10:16:42;29.57;52.30
64652;HTU21D;51062;45.120;37.660;2022-08-19T10:19:09;29.52;52.47
64652;HTU21D;51062;45.120;37.660;2022-08-19T10:21:35;29.48;52.72
64652;HTU21D;51062;45.120;37.660;2022-08-19T10:24:04;29.46;53.07
64652;HTU21D;51062;45.120;37.660;2022-08-19T10:26:39;29.39;53.56
64652;HTU21D;51062;45.120;37.660;2022-08-19T10:29:07;29.35;54.04
64652;HTU21D;51062;45.120;37.660;2022-08-19T10:31:34;29.30;54.91
64652;HTU21D;51062;45.120;37.660;2022-08-19T10:34:00;29.24;55.37
64652;HTU21D;51062;45.120;37.660;2022-08-19T10:36:29;29.21;55.58
64652;HTU21D;51062;45.120;37.660;2022-08-19T10:38:58;29.19;55.63
64652;HTU21D;51062;45.120;37.660;2022-08-19T10:41:29;29.15;56.17
64652;HTU21D;51062;45.120;37.660;2022-08-19T10:43:58;29.14;56.68
64652;HTU21D;51062;45.120;37.660;2022-08-19T10:46:27;29.12;57.06
64652;HTU21D;51062;45.120;37.660;2022-08-19T10:48:54;29.09;57.24
64652;HTU21D;51062;45.120;37.660;2022-08-19T10:51:21;29.08;57.44
64652;HTU21D;51062;45.120;37.660;2022-08-19T10:54:06;29.08;57.45
64652;HTU21D;51062;45.120;37.660;2022-08-19T10:56:33;29.11;57.61
64652;HTU21D;51062;45.120;37.660;2022-08-19T10:59:28;29.08;57.89
64652;HTU21D;51062;45.120;37.660;2022-08-19T11:02:00;29.07;58.10
64652;HTU21D;51062;45.120;37.660;2022-08-19T11:04:27;29.07;58.38
64652;HTU21D;51062;45.120;37.660;2022-08-19T11:06:53;29.06;58.60
64652;HTU21D;51062;45.120;37.660;2022-08-19T11:09:23;29.05;58.80
64652;HTU21D;51062;45.120;37.660;2022-08-19T11:11:55;29.05;58.98
64652;HTU21D;51062;45.120;37.660;2022-08-19T11:14:23;29.08;59.13
64652;HTU21D;51062;45.120;37.660;2022-08-19T11:16:51;29.13;59.25
64652;HTU21D;51062;45.120;37.660;2022-08-19T11:19:17;29.18;59.32
64652;HTU21D;51062;45.120;37.660;2022-08-19T11:21:47;29.29;59.36
64652;HTU21D;51062;45.120;37.660;2022-08-19T11:24:21;29.42;59.42
64652;HTU21D;51062;45.120;37.660;2022-08-19T11:26:49;29.57;59.21
64652;HTU21D;51062;45.120;37.660;2022-08-19T11:29:18;29.68;59.03
64652;HTU21D;51062;45.120;37.660;2022-08-19T11:31:47;29.80;59.06
64652;HTU21D;51062;45.120;37.660;2022-08-19T11:34:21;29.92;58.92
64652;HTU21D;51062;45.120;37.660;2022-08-19T11:36:48;30.04;58.64
64652;HTU21D;51062;45.120;37.660;2022-08-19T11:39:18;30.16;58.32
64652;HTU21D;51062;45.120;37.660;2022-08-19T11:41:44;30.22;58.17
64652;HTU21D;51062;45.120;37.660;2022-08-19T11:44:11;30.34;58.04
64652;HTU21D;51062;45.120;37.660;2022-08-19T11:46:41;30.48;57.64
64652;HTU21D;51062;45.120;37.660;2022-08-19T11:49:12;30.55;56.95
64652;HTU21D;51062;45.120;37.660;2022-08-19T11:51:38;30.59;57.03
64652;HTU21D;51062;45.120;37.660;2022-08-19T11:54:05;30.61;56.90
64652;HTU21D;51062;45.120;37.660;2022-08-19T11:56:32;30.68;56.55
64652;HTU21D;51062;45.120;37.660;2022-08-19T11:59:00;30.70;56.62
64652;HTU21D;51062;45.120;37.660;2022-08-19T12:01:27;30.74;56.70
64652;HTU21D;51062;45.120;37.660;2022-08-19T12:03:55;30.80;56.27
64652;HTU21D;51062;45.120;37.660;2022-08-19T12:06:27;30.77;56.35
64652;HTU21D;51062;45.120;37.660;2022-08-19T12:09:00;30.78;56.64
64652;HTU21D;51062;45.120;37.660;2022-08-19T12:11:27;30.85;56.74
64652;HTU21D;51062;45.120;37.660;2022-08-19T12:13:53;30.95;56.57
64652;HTU21D;51062;45.120;37.660;2022-08-19T12:16:24;30.99;56.32
64652;HTU21D;51062;45.120;37.660;2022-08-19T12:18:51;30.99;56.27
64652;HTU21D;51062;45.120;37.660;2022-08-19T12:21:21;30.93;56.29
64652;HTU21D;51062;45.120;37.660;2022-08-19T12:23:51;30.91;56.53
64652;HTU21D;51062;45.120;37.660;2022-08-19T12:26:18;30.96;56.44
64652;HTU21D;51062;45.120;37.660;2022-08-19T12:28:44;30.98;56.67
64652;HTU21D;51062;45.120;37.660;2022-08-19T12:31:11;30.99;56.75
64652;HTU21D;51062;45.120;37.660;2022-08-19T12:33:38;30.97;57.03
64652;HTU21D;51062;45.120;37.660;2022-08-19T12:36:06;30.95;57.14
64652;HTU21D;51062;45.120;37.660;2022-08-19T12:38:33;30.96;57.45
64652;HTU21D;51062;45.120;37.660;2022-08-19T12:41:00;30.95;57.42
64652;HTU21D;51062;45.120;37.660;2022-08-19T12:43:28;30.95;57.54
64652;HTU21D;51062;45.120;37.660;2022-08-19T12:45:55;30.95;57.60
64652;HTU21D;51062;45.120;37.660;2022-08-19T12:48:22;30.94;57.74
64652;HTU21D;51062;45.120;37.660;2022-08-19T12:50:48;30.97;57.69
64652;HTU21D;51062;45.120;37.660;2022-08-19T12:53:15;31.00;57.34
64652;HTU21D;51062;45.120;37.660;2022-08-19T12:55:42;31.01;57.35
64652;HTU21D;51062;45.120;37.660;2022-08-19T12:58:11;31.01;57.23
64652;HTU21D;51062;45.120;37.660;2022-08-19T13:00:38;31.00;57.14
64652;HTU21D;51062;45.120;37.660;2022-08-19T13:03:05;30.96;57.27
64652;HTU21D;51062;45.120;37.660;2022-08-19T13:05:33;30.94;56.92
64652;HTU21D;51062;45.120;37.660;2022-08-19T13:08:00;30.86;56.71
64652;HTU21D;51062;45.120;37.660;2022-08-19T13:10:30;30.81;56.84
64652;HTU21D;51062;45.120;37.660;2022-08-19T13:13:03;30.79;57.06
64652;HTU21D;51062;45.120;37.660;2022-08-19T13:15:34;30.79;57.30
64652;HTU21D;51062;45.120;37.660;2022-08-19T13:18:01;30.78;57.57
64652;HTU21D;51062;45.120;37.660;2022-08-19T13:20:29;30.82;57.51
64652;HTU21D;51062;45.120;37.660;2022-08-19T13:22:55;30.80;57.44
64652;HTU21D;51062;45.120;37.660;2022-08-19T13:25:23;30.77;57.54
64652;HTU21D;51062;45.120;37.660;2022-08-19T13:27:51;30.74;57.40
64652;HTU21D;51062;45.120;37.660;2022-08-19T13:30:18;30.74;57.19
64652;HTU21D;51062;45.120;37.660;2022-08-19T13:33:04;30.74;56.90
64652;HTU21D;51062;45.120;37.660;2022-08-19T13:35:51;30.70;56.23
64652;HTU21D;51062;45.120;37.660;2022-08-19T13:38:21;30.65;56.23
64652;HTU21D;51062;45.120;37.660;2022-08-19T13:40:49;30.59;55.94
64652;HTU21D;51062;45.120;37.660;2022-08-19T13:43:16;30.46;55.67
64652;HTU21D;51062;45.120;37.660;2022-08-19T13:45:43;30.26;55.87
64652;HTU21D;51062;45.120;37.660;2022-08-19T13:48:09;30.16;55.69
64652;HTU21D;51062;45.120;37.660;2022-08-19T13:50:40;30.06;55.14
64652;HTU21D;51062;45.120;37.660;2022-08-19T13:53:08;30.00;54.57
64652;HTU21D;51062;45.120;37.660;2022-08-19T13:55:38;29.91;54.52
64652;HTU21D;51062;45.120;37.660;2022-08-19T13:58:05;29.89;54.54
64652;HTU21D;51062;45.120;37.660;2022-08-19T14:00:34;29.86;54.22
64652;HTU21D;51062;45.120;37.660;2022-08-19T14:03:01;29.83;53.93
64652;HTU21D;51062;45.120;37.660;2022-08-19T14:05:30;29.81;53.52
64652;HTU21D;51062;45.120;37.660;2022-08-19T14:07:57;29.80;53.31
64652;HTU21D;51062;45.120;37.660;2022-08-19T14:10:25;29.82;53.24
64652;HTU21D;51062;45.120;37.660;2022-08-19T14:12:53;29.85;53.17
64652;HTU21D;51062;45.120;37.660;2022-08-19T14:15:21;29.89;53.22
64652;HTU21D;51062;45.120;37.660;2022-08-19T14:17:49;29.91;53.17
64652;HTU21D;51062;45.120;37.660;2022-08-19T14:20:16;29.90;53.05
64652;HTU21D;51062;45.120;37.660;2022-08-19T14:22:44;29.89;53.14
64652;HTU21D;51062;45.120;37.660;2022-08-19T14:25:17;29.88;53.21
64652;HTU21D;51062;45.120;37.660;2022-08-19T14:27:44;29.87;53.24
64652;HTU21D;51062;45.120;37.660;2022-08-19T14:30:13;29.87;53.36
64652;HTU21D;51062;45.120;37.660;2022-08-19T14:32:40;29.86;53.61
64652;HTU21D;51062;45.120;37.660;2022-08-19T14:35:10;29.81;52.98
64652;HTU21D;51062;45.120;37.660;2022-08-19T14:37:38;29.71;52.50
64652;HTU21D;51062;45.120;37.660;2022-08-19T14:40:06;29.61;52.46
64652;HTU21D;51062;45.120;37.660;2022-08-19T14:42:33;29.56;52.51
64652;HTU21D;51062;45.120;37.660;2022-08-19T14:45:00;29.54;52.56
64652;HTU21D;51062;45.120;37.660;2022-08-19T14:47:26;29.49;52.46
64652;HTU21D;51062;45.120;37.660;2022-08-19T14:49:53;29.44;52.66
64652;HTU21D;51062;45.120;37.660;2022-08-19T14:52:20;29.39;52.62
64652;HTU21D;51062;45.120;37.660;2022-08-19T14:54:46;29.36;52.53
64652;HTU21D;51062;45.120;37.660;2022-08-19T14:57:13;29.35;52.51
64652;HTU21D;51062;45.120;37.660;2022-08-19T14:59:42;29.29;52.58
64652;HTU21D;51062;45.120;37.660;2022-08-19T15:02:09;29.19;52.64
64652;HTU21D;51062;45.120;37.660;2022-08-19T15:04:35;29.13;52.53
64652;HTU21D;51062;45.120;37.660;2022-08-19T15:07:02;29.06;52.69
64652;HTU21D;51062;45.120;37.660;2022-08-19T15:09:32;28.95;52.85
64652;HTU21D;51062;45.120;37.660;2022-08-19T15:11:58;28.86;52.95
64652;HTU21D;51062;45.120;37.660;2022-08-19T15:14:29;28.75;53.11
64652;HTU21D;51062;45.120;37.660;2022-08-19T15:17:02;28.64;53.33
64652;HTU21D;51062;45.120;37.660;2022-08-19T15:19:30;28.56;53.46
64652;HTU21D;51062;45.120;37.660;2022-08-19T15:21:57;28.46;53.68
64652;HTU21D;51062;45.120;37.660;2022-08-19T15:24:23;28.37;53.82